Time;durP1;ratioP1;P1;durP2;ratioP2;P2;SDS_P1;SDS_P2;PMS_P1;PMS_P2;Temp;Humidity;BMP_temperature;BMP_pressure;BME280_temperature;BME280_humidity;BME280_pressure;Samples;Min_cycle;Max_cycle;Signal;HPM_P1;HPM_P2
2021/08/25 00:01:12;;;;;;;4.90;3.50;;;;;;;28.68;41.63;100650.93;112779;1221;65932;-85
2021/08/25 00:03:48;;;;;;;5.20;3.80;;;;;;;28.68;41.67;100653.48;112783;1214;60981;-88
2021/08/25 00:06:18;;;;;;;4.70;3.40;;;;;;;28.68;41.73;100653.52;112628;1219;61066;-83
2021/08/25 00:08:50;;;;;;;4.90;3.50;;;;;;;28.68;41.69;100649.89;112821;1220;63965;-90
2021/08/25 00:11:33;;;;;;;5.80;3.40;;;;;;;28.67;41.37;100648.13;112751;1214;66869;-89
2021/08/25 00:14:03;;;;;;;4.60;3.20;;;;;;;28.67;41.65;100649.02;112806;1219;61009;-88
2021/08/25 00:16:54;;;;;;;5.20;3.30;;;;;;;28.68;41.71;100644.84;112794;1220;61125;-88
2021/08/25 00:19:29;;;;;;;5.80;3.80;;;;;;;28.67;41.83;100636.92;112295;1224;64846;-88
2021/08/25 00:22:15;;;;;;;5.00;3.50;;;;;;;28.67;41.62;100637.09;112114;1218;75787;-87
2021/08/25 00:24:53;;;;;;;4.70;3.10;;;;;;;28.66;41.74;100637.55;112436;1217;61755;-89
2021/08/25 00:27:29;;;;;;;5.20;3.40;;;;;;;28.66;41.57;100636.64;112455;1219;61002;-87
2021/08/25 00:30:04;;;;;;;5.60;3.60;;;;;;;28.67;41.87;100637.45;112279;1224;72776;-81
2021/08/25 00:32:41;;;;;;;;;;;;;;;;;;;;;
2021/08/25 00:35:13;;;;;;;5.00;3.40;;;;;;;28.67;41.78;100639.50;112324;1225;61124;-91
2021/08/25 00:37:55;;;;;;;4.20;3.20;;;;;;;28.67;41.70;100638.23;112288;1222;60956;-87
2021/08/25 00:40:31;;;;;;;4.80;3.60;;;;;;;28.66;41.86;100635.77;112175;1219;64798;-89
2021/08/25 00:43:17;;;;;;;4.50;3.50;;;;;;;28.66;41.80;100632.30;112301;1223;66132;-88
2021/08/25 00:45:45;;;;;;;5.00;3.30;;;;;;;28.66;41.57;100632.33;112402;1223;60975;-88
2021/08/25 00:48:14;;;;;;;6.20;3.50;;;;;;;28.66;41.85;100629.98;112163;1219;61034;-83
2021/08/25 00:50:40;;;;;;;4.60;3.40;;;;;;;28.66;41.75;100631.80;112283;1222;61004;-84
2021/08/25 00:53:24;;;;;;;4.90;3.50;;;;;;;28.66;41.92;100632.71;112177;1222;60941;-93
2021/08/25 00:56:06;;;;;;;6.40;3.90;;;;;;;28.65;42.12;100632.06;112554;1222;61659;-85
2021/08/25 00:58:35;;;;;;;4.60;3.50;;;;;;;28.65;41.90;100629.52;112544;1218;60972;-87
2021/08/25 01:01:07;;;;;;;;;;;;;;;28.65;42.04;100628.10;112467;1218;63737;-87
2021/08/25 01:03:37;;;;;;;4.50;3.40;;;;;;;28.63;41.99;100628.62;112592;1218;65883;-90
2021/08/25 01:06:03;;;;;;;5.50;3.70;;;;;;;28.63;42.05;100622.98;112546;1219;61016;-86
2021/08/25 01:08:49;;;;;;;5.50;3.40;;;;;;;28.64;42.20;100622.37;112604;1214;61085;-84
2021/08/25 01:11:25;;;;;;;;;;;;;;;;;;;;;
2021/08/25 01:13:53;;;;;;;5.10;3.20;;;;;;;28.64;42.08;100618.07;112396;1224;65832;-86
2021/08/25 01:16:24;;;;;;;4.70;3.20;;;;;;;28.64;42.10;100611.02;112540;1222;60982;-84
2021/08/25 01:19:04;;;;;;;5.20;3.20;;;;;;;28.64;42.01;100605.58;112568;1214;61079;-86
2021/08/25 01:21:33;;;;;;;6.60;3.70;;;;;;;28.63;42.10;100597.29;112626;1224;64087;-86
2021/08/25 01:24:30;;;;;;;4.30;3.30;;;;;;;28.63;42.13;100597.30;112528;1222;65695;-87
2021/08/25 01:27:15;;;;;;;5.00;3.60;;;;;;;28.63;42.06;100597.70;112383;1218;61080;-91
2021/08/25 01:29:50;;;;;;;4.70;3.30;;;;;;;28.64;42.26;100598.33;112557;1219;60970;-89
2021/08/25 01:32:27;;;;;;;5.50;3.50;;;;;;;28.64;42.10;100601.61;112389;1219;65122;-86
2021/08/25 01:34:56;;;;;;;4.50;3.40;;;;;;;28.63;42.08;100603.43;112608;1221;65735;-84
2021/08/25 01:37:40;;;;;;;4.60;3.60;;;;;;;28.63;41.96;100611.43;112399;1216;61020;-89
2021/08/25 01:40:27;;;;;;;5.30;3.70;;;;;;;28.63;42.20;100608.53;112610;1225;60991;-85
2021/08/25 01:43:05;;;;;;;5.40;3.40;;;;;;;28.63;42.27;100601.52;112537;1222;64834;-88
2021/08/25 01:45:33;;;;;;;4.40;3.30;;;;;;;28.63;42.43;100599.84;112554;1214;66810;-89
2021/08/25 01:48:02;;;;;;;5.30;3.30;;;;;;;28.63;42.16;100600.38;112458;1223;60960;-90
2021/08/25 01:50:39;;;;;;;4.70;3.50;;;;;;;28.63;42.24;100599.34;112592;1219;61022;-86
2021/08/25 01:53:05;;;;;;;5.00;3.40;;;;;;;28.63;42.25;100598.09;112410;1219;65168;-87
2021/08/25 01:55:31;;;;;;;5.20;3.60;;;;;;;28.62;42.20;100598.48;112505;1219;61008;-87
2021/08/25 01:58:00;;;;;;;5.50;3.60;;;;;;;28.62;42.31;100593.59;112403;1222;61018;-86
2021/08/25 02:00:35;;;;;;;4.80;3.20;;;;;;;28.62;42.16;100589.23;112514;1219;59757;-85
2021/08/25 02:03:11;;;;;;;5.30;3.40;;;;;;;28.63;42.08;100589.03;112512;1219;65374;-86
2021/08/25 02:05:42;;;;;;;5.90;3.50;;;;;;;28.62;42.40;100588.57;112534;1214;65968;-85
2021/08/25 02:08:39;;;;;;;5.20;3.60;;;;;;;28.62;42.20;100591.85;111965;1222;61523;-89
2021/08/25 02:11:13;;;;;;;4.20;3.10;;;;;;;28.62;42.19;100592.52;112081;1225;61005;-85
2021/08/25 02:13:52;;;;;;;5.50;3.40;;;;;;;28.62;42.62;100590.91;112090;1225;64928;-88
2021/08/25 02:16:25;;;;;;;5.10;3.60;;;;;;;28.62;42.53;100592.33;112112;1225;65466;-89
2021/08/25 02:18:55;;;;;;;5.60;3.50;;;;;;;28.62;42.46;100593.99;111968;1228;60998;-87
2021/08/25 02:21:24;;;;;;;4.60;3.50;;;;;;;28.61;42.33;100595.48;111941;1228;61107;-85
2021/08/25 02:23:50;;;;;;;4.60;3.50;;;;;;;28.62;42.37;100595.63;112081;1226;63898;-84
2021/08/25 02:26:22;;;;;;;6.00;3.90;;;;;;;28.62;42.27;100594.91;111966;1230;65855;-85
2021/08/25 02:28:52;;;;;;;4.70;3.20;;;;;;;28.61;42.27;100595.66;111975;1229;61211;-87
2021/08/25 02:31:34;;;;;;;;;;;;;;;;;;;;;
2021/08/25 02:34:11;;;;;;;5.30;3.90;;;;;;;28.62;42.62;100598.38;112086;1222;65232;-90
2021/08/25 02:36:40;;;;;;;5.30;3.80;;;;;;;28.61;42.46;100603.63;112049;1225;66795;-87
2021/08/25 02:39:15;;;;;;;5.60;3.50;;;;;;;28.61;42.48;100606.72;111947;1227;61159;-82
2021/08/25 02:41:56;;;;;;;5.20;3.60;;;;;;;28.61;42.40;100601.83;112078;1225;61011;-88
2021/08/25 02:44:29;;;;;;;5.60;3.70;;;;;;;28.61;42.39;100604.63;112069;1225;64745;-83
2021/08/25 02:47:06;;;;;;;4.90;3.70;;;;;;;28.61;42.55;100604.25;112396;1222;67228;-89
2021/08/25 02:49:51;;;;;;;;;;;;;;;;;;;;;
2021/08/25 02:52:26;;;;;;;5.30;3.70;;;;;;;28.60;42.50;100606.46;112527;1222;60946;-89
2021/08/25 02:54:58;;;;;;;5.10;3.50;;;;;;;28.60;42.52;100606.28;112500;1219;72839;-83
2021/08/25 02:57:34;;;;;;;5.00;3.60;;;;;;;28.60;42.51;100607.02;112392;1217;65955;-84
2021/08/25 03:00:11;;;;;;;5.60;3.80;;;;;;;28.60;42.63;100606.08;112573;1216;61004;-83
2021/08/25 03:02:50;;;;;;;5.30;3.70;;;;;;;28.60;42.67;100604.52;112549;1217;61283;-86
2021/08/25 03:05:25;;;;;;;5.60;3.70;;;;;;;28.59;42.60;100610.35;112549;1219;64747;-81
2021/08/25 03:07:56;;;;;;;5.80;3.70;;;;;;;28.59;42.50;100609.59;112222;1223;65773;-86
2021/08/25 03:10:38;;;;;;;;;;;;;;;;;;;;;
2021/08/25 03:13:13;;;;;;;4.70;3.60;;;;;;;28.59;42.55;100607.29;112522;1216;61251;-85
2021/08/25 03:15:52;;;;;;;4.50;3.40;;;;;;;28.59;42.72;100608.01;112945;1219;65391;-84
2021/08/25 03:18:18;;;;;;;5.50;3.70;;;;;;;28.59;42.87;100604.77;112940;1219;65761;-85
2021/08/25 03:20:57;;;;;;;5.20;3.40;;;;;;;28.59;42.79;100605.48;112957;1214;60968;-88
2021/08/25 03:23:46;;;;;;;5.10;3.70;;;;;;;28.59;42.89;100609.66;112984;1218;61068;-85
2021/08/25 03:26:17;;;;;;;6.10;3.90;;;;;;;28.59;42.89;100609.70;112924;1211;64687;-93
2021/08/25 03:28:51;;;;;;;5.20;3.50;;;;;;;28.58;42.87;100607.90;112955;1216;76196;-85
2021/08/25 03:31:17;;;;;;;5.00;3.30;;;;;;;28.58;42.73;100612.98;112965;1218;60844;-87
2021/08/25 03:33:49;;;;;;;5.10;3.70;;;;;;;28.58;42.86;100610.98;112942;1212;60984;-83
2021/08/25 03:36:25;;;;;;;;;;;;;;;28.58;42.81;100603.05;112951;1212;63865;-91
2021/08/25 03:38:56;;;;;;;4.80;3.70;;;;;;;28.56;42.83;100605.61;112942;1216;66529;-88
2021/08/25 03:41:22;;;;;;;4.50;3.70;;;;;;;28.56;42.95;100607.22;112962;1212;61014;-88
2021/08/25 03:43:59;;;;;;;5.40;3.80;;;;;;;28.56;42.75;100598.02;112962;1218;60994;-90
2021/08/25 03:46:35;;;;;;;4.90;3.80;;;;;;;28.56;42.94;100603.98;112949;1216;64461;-85
2021/08/25 03:49:04;;;;;;;5.10;3.50;;;;;;;28.56;42.96;100611.77;112970;1218;66308;-84
2021/08/25 03:51:40;;;;;;;;;;;;;;;;;;;;;
2021/08/25 03:54:11;;;;;;;4.70;3.60;;;;;;;28.56;43.02;100619.60;112937;1216;61087;-90
2021/08/25 03:56:41;;;;;;;5.20;3.80;;;;;;;28.57;43.00;100620.79;112961;1219;63847;-84
2021/08/25 03:59:18;;;;;;;;;;;;;;;;;;;;;
2021/08/25 04:01:47;;;;;;;5.70;3.50;;;;;;;28.56;43.17;100615.35;112976;1219;60962;-86
2021/08/25 04:04:12;;;;;;;;;;;;;;;28.56;42.90;100622.05;112980;1218;60976;-87
2021/08/25 04:06:59;;;;;;;5.30;3.50;;;;;;;28.55;42.79;100625.14;112960;1220;61072;-87
2021/08/25 04:09:40;;;;;;;4.80;3.80;;;;;;;28.55;42.92;100623.80;112965;1219;65742;-86
2021/08/25 04:12:26;;;;;;;4.60;3.60;;;;;;;28.56;42.92;100627.74;113019;1218;60973;-90
2021/08/25 04:15:02;;;;;;;5.70;3.60;;;;;;;28.56;43.01;100630.64;113056;1218;60943;-84
2021/08/25 04:17:37;;;;;;;5.00;3.80;;;;;;;28.55;43.22;100632.83;113001;1212;62892;-87
2021/08/25 04:20:07;;;;;;;5.50;3.80;;;;;;;28.56;42.96;100635.11;113033;1216;66786;-88
2021/08/25 04:22:41;;;;;;;5.50;3.30;;;;;;;28.57;42.85;100635.79;112997;1216;61020;-86
2021/08/25 04:25:11;;;;;;;7.10;4.10;;;;;;;28.57;42.98;100638.48;113023;1217;60959;-87
2021/08/25 04:27:52;;;;;;;;;;;;;;;;;;;;;
2021/08/25 04:30:27;;;;;;;4.80;3.70;;;;;;;28.57;43.15;100635.94;112882;1216;65790;-84
2021/08/25 04:32:55;;;;;;;4.90;3.60;;;;;;;28.58;43.04;100634.23;112800;1211;60935;-82
2021/08/25 04:35:24;;;;;;;4.80;3.40;;;;;;;28.58;42.99;100634.08;112923;1215;61708;-87
2021/08/25 04:37:50;;;;;;;5.20;3.80;;;;;;;28.58;43.14;100637.09;112858;1214;64657;-90
2021/08/25 04:40:30;;;;;;;5.60;3.70;;;;;;;28.58;43.20;100632.71;112939;1211;61415;-84
2021/08/25 04:43:03;;;;;;;6.10;4.10;;;;;;;28.58;43.23;100632.75;112994;1218;61050;-85
2021/08/25 04:45:31;;;;;;;5.30;3.80;;;;;;;28.58;43.10;100631.66;113008;1217;61105;-85
2021/08/25 04:48:06;;;;;;;4.90;3.80;;;;;;;28.59;43.05;100639.02;112993;1218;63717;-85
2021/08/25 04:50:34;;;;;;;5.30;4.00;;;;;;;28.59;42.98;100646.47;112938;1220;66689;-86
2021/08/25 04:53:14;;;;;;;5.60;4.10;;;;;;;28.59;43.18;100649.31;112965;1218;60965;-87
2021/08/25 04:55:42;;;;;;;5.90;4.10;;;;;;;28.59;42.99;100648.60;112973;1216;60998;-87
2021/08/25 04:58:37;;;;;;;5.70;4.30;;;;;;;28.58;43.12;100650.27;112959;1212;62701;-87
2021/08/25 05:01:17;;;;;;;6.50;4.20;;;;;;;28.58;43.19;100652.89;112943;1216;65727;-84
2021/08/25 05:03:51;;;;;;;5.40;4.10;;;;;;;28.57;42.98;100655.65;112966;1218;61016;-89
2021/08/25 05:06:39;;;;;;;5.70;3.60;;;;;;;28.57;42.92;100653.55;112889;1218;60913;-86
2021/08/25 05:09:08;;;;;;;6.10;4.20;;;;;;;28.56;43.02;100653.62;112941;1216;63677;-84
2021/08/25 05:11:44;;;;;;;5.20;3.90;;;;;;;28.56;42.98;100656.67;112922;1216;65751;-85
2021/08/25 05:14:30;;;;;;;6.10;4.00;;;;;;;28.56;42.82;100658.34;112980;1218;60914;-90
2021/08/25 05:17:14;;;;;;;7.10;4.60;;;;;;;28.56;42.82;100661.59;112991;1218;60973;-85
2021/08/25 05:20:00;;;;;;;5.20;3.90;;;;;;;28.56;42.75;100665.39;112975;1218;64859;-93
2021/08/25 05:22:26;;;;;;;7.90;5.00;;;;;;;28.55;42.95;100667.08;112980;1217;65769;-85
2021/08/25 05:25:12;;;;;;;11.70;5.30;;;;;;;28.55;42.69;100671.60;112937;1210;61198;-89
2021/08/25 05:27:58;;;;;;;7.90;4.90;;;;;;;28.56;42.62;100676.99;113003;1219;60992;-89
2021/08/25 05:30:29;;;;;;;5.90;4.20;;;;;;;28.55;42.44;100672.89;112968;1218;64697;-87
2021/08/25 05:32:58;;;;;;;6.00;4.40;;;;;;;28.56;42.40;100666.64;112943;1218;65799;-87
2021/08/25 05:35:25;;;;;;;7.40;4.60;;;;;;;28.56;42.43;100671.89;112941;1212;61001;-87
2021/08/25 05:37:54;;;;;;;7.60;4.60;;;;;;;28.56;42.26;100678.22;113013;1213;60973;-86
2021/08/25 05:40:38;;;;;;;6.70;5.10;;;;;;;28.55;42.23;100676.11;112987;1215;63649;-84
2021/08/25 05:43:04;;;;;;;10.40;4.90;;;;;;;28.56;42.24;100674.08;112958;1211;65802;-84
2021/08/25 05:45:35;;;;;;;9.40;5.20;;;;;;;28.56;42.25;100679.52;113046;1211;61121;-85
2021/08/25 05:48:09;;;;;;;9.00;5.20;;;;;;;28.56;42.39;100679.55;112959;1216;61047;-83
2021/08/25 05:50:34;;;;;;;10.10;5.90;;;;;;;28.56;42.48;100686.20;112844;1217;63828;-87
2021/08/25 05:53:10;;;;;;;11.80;5.30;;;;;;;28.56;42.37;100684.20;112840;1212;61069;-85
2021/08/25 05:56:05;;;;;;;8.30;5.10;;;;;;;28.56;42.16;100680.23;112931;1211;61037;-85
2021/08/25 05:58:33;;;;;;;8.50;5.80;;;;;;;28.56;42.17;100678.22;112896;1211;61042;-84
2021/08/25 06:01:01;;;;;;;10.40;5.60;;;;;;;28.56;42.11;100677.69;112935;1214;64033;-81
2021/08/25 06:03:29;;;;;;;8.00;6.00;;;;;;;28.56;42.07;100678.02;112865;1211;65725;-85
2021/08/25 06:06:04;;;;;;;9.00;5.40;;;;;;;28.56;42.11;100677.65;112886;1211;61020;-89
2021/08/25 06:08:42;;;;;;;14.10;5.90;;;;;;;28.56;42.04;100674.25;112901;1218;61002;-83
2021/08/25 06:11:08;;;;;;;11.30;5.90;;;;;;;28.55;41.97;100674.48;112832;1211;73599;-84
2021/08/25 06:13:34;;;;;;;15.40;6.30;;;;;;;28.55;42.04;100670.95;112812;1218;65745;-84
2021/08/25 06:16:00;;;;;;;9.00;5.70;;;;;;;28.55;42.13;100666.05;112692;1218;60972;-83
2021/08/25 06:18:29;;;;;;;14.00;5.90;;;;;;;28.54;42.01;100664.83;112801;1218;60993;-84
2021/08/25 06:20:55;;;;;;;8.10;6.10;;;;;;;28.54;42.09;100665.41;112683;1211;63718;-83
2021/08/25 06:23:21;;;;;;;11.60;6.40;;;;;;;28.53;42.01;100664.96;112797;1216;60991;-83
2021/08/25 06:25:49;;;;;;;9.30;6.00;;;;;;;28.52;42.00;100661.98;112684;1217;61005;-83
2021/08/25 06:28:15;;;;;;;12.10;6.10;;;;;;;28.52;41.85;100659.64;112348;1216;61551;-83
2021/08/25 06:30:41;;;;;;;11.50;5.90;;;;;;;28.52;41.88;100657.88;112225;1212;61076;-84
2021/08/25 06:33:06;;;;;;;9.80;5.90;;;;;;;28.52;41.89;100654.08;112383;1211;60996;-82
2021/08/25 06:35:32;;;;;;;9.20;5.70;;;;;;;28.52;41.86;100652.08;112598;1215;60972;-83
2021/08/25 06:37:59;;;;;;;12.30;6.10;;;;;;;28.52;41.75;100646.23;112434;1211;60998;-83
2021/08/25 06:40:25;;;;;;;11.60;5.20;;;;;;;28.52;41.95;100643.34;112756;1211;61044;-86
2021/08/25 06:42:52;;;;;;;10.10;5.40;;;;;;;28.51;41.95;100645.61;112827;1217;61069;-84
2021/08/25 06:45:21;;;;;;;8.80;5.90;;;;;;;28.51;41.64;100645.48;112758;1214;60985;-84
2021/08/25 06:47:56;;;;;;;16.80;6.80;;;;;;;28.51;41.77;100649.96;112850;1218;61057;-90
2021/08/25 06:50:28;;;;;;;11.10;6.10;;;;;;;28.46;41.64;100649.63;112828;1211;64737;-86
2021/08/25 06:53:02;;;;;;;9.80;5.90;;;;;;;28.39;41.78;100649.60;112895;1217;67016;-84
2021/08/25 06:55:33;;;;;;;11.30;6.40;;;;;;;28.30;41.79;100648.75;112979;1217;60954;-89
2021/08/25 06:58:00;;;;;;;13.00;5.70;;;;;;;28.27;41.80;100650.35;112776;1211;60977;-84
2021/08/25 07:00:28;;;;;;;9.80;5.60;;;;;;;28.29;41.75;100646.15;112714;1210;64762;-83
2021/08/25 07:02:56;;;;;;;11.30;5.70;;;;;;;28.33;41.86;100646.69;112921;1217;66814;-84
2021/08/25 07:05:32;;;;;;;14.50;6.20;;;;;;;28.34;41.81;100647.30;112997;1209;60937;-91
2021/08/25 07:08:08;;;;;;;9.80;6.30;;;;;;;28.33;41.77;100648.42;112888;1216;60954;-88
2021/08/25 07:10:48;;;;;;;9.00;5.80;;;;;;;28.35;41.72;100651.68;112921;1217;65074;-87
2021/08/25 07:13:19;;;;;;;10.30;5.30;;;;;;;28.38;41.70;100648.64;112903;1211;75821;-91
2021/08/25 07:15:48;;;;;;;9.10;5.30;;;;;;;28.40;41.76;100648.24;112916;1217;60989;-86
2021/08/25 07:18:14;;;;;;;;;;;;;;;28.42;41.65;100643.73;112932;1211;60925;-84
2021/08/25 07:20:47;;;;;;;7.70;5.70;;;;;;;28.42;41.59;100641.90;112993;1217;61005;-84
2021/08/25 07:23:22;;;;;;;13.60;5.60;;;;;;;28.43;41.55;100639.20;112862;1214;65706;-87
2021/08/25 07:26:01;;;;;;;;;;;;;;;;;;;;;
2021/08/25 07:28:44;;;;;;;8.70;5.30;;;;;;;28.47;41.86;100633.21;112991;1217;60985;-87
2021/08/25 07:31:23;;;;;;;11.10;5.40;;;;;;;28.49;41.83;100630.87;112963;1217;63707;-87
2021/08/25 07:34:19;;;;;;;8.10;5.20;;;;;;;28.48;41.78;100628.56;112825;1211;64740;-84
2021/08/25 07:36:45;;;;;;;8.20;5.30;;;;;;;28.49;41.76;100630.84;112527;1213;59964;-84
2021/08/25 07:39:39;;;;;;;10.90;5.20;;;;;;;28.50;41.68;100634.91;112516;1216;60994;-86
2021/08/25 07:42:08;;;;;;;8.30;5.20;;;;;;;28.51;41.85;100636.07;112517;1213;63788;-86
2021/08/25 07:44:49;;;;;;;11.30;5.00;;;;;;;28.52;41.69;100635.60;112527;1217;66924;-85
2021/08/25 07:47:22;;;;;;;8.60;5.00;;;;;;;28.51;41.41;100631.90;112468;1216;61146;-84
2021/08/25 07:50:03;;;;;;;10.00;5.10;;;;;;;28.50;41.45;100635.97;112511;1213;61092;-84
2021/08/25 07:52:29;;;;;;;11.90;5.00;;;;;;;28.50;41.42;100643.02;112080;1219;63729;-83
2021/08/25 07:55:06;;;;;;;10.60;5.30;;;;;;;28.51;41.54;100641.34;112504;1221;61665;-87
2021/08/25 07:57:40;;;;;;;7.50;4.70;;;;;;;28.52;41.59;100648.61;112299;1216;62391;-83
2021/08/25 08:00:07;;;;;;;9.40;5.30;;;;;;;28.53;41.56;100649.02;112357;1215;61704;-84
2021/08/25 08:02:36;;;;;;;9.50;5.40;;;;;;;28.54;41.59;100654.93;112455;1216;60935;-85
2021/08/25 08:05:32;;;;;;;7.80;4.90;;;;;;;28.54;41.49;100663.16;112213;1216;65802;-87
2021/08/25 08:08:04;;;;;;;8.50;5.50;;;;;;;28.55;41.62;100665.09;112177;1219;61012;-86
2021/08/25 08:10:31;;;;;;;7.30;4.90;;;;;;;28.56;41.56;100671.95;112512;1217;60956;-89
2021/08/25 08:13:24;;;;;;;8.10;5.60;;;;;;;28.55;41.48;100668.61;112134;1218;62550;-84
2021/08/25 08:15:58;;;;;;;;;;;;;;;28.55;41.38;100666.37;112619;1213;66738;-84
2021/08/25 08:19:16;;;;;;;6.90;4.60;;;;;;;28.55;41.33;100664.27;112758;1219;61032;-87
2021/08/25 08:21:43;;;;;;;8.50;5.00;;;;;;;28.56;41.46;100665.92;112839;1212;61166;-89
2021/08/25 08:24:19;;;;;;;9.30;5.10;;;;;;;28.57;41.47;100667.97;112761;1219;64359;-85
2021/08/25 08:27:02;;;;;;;10.10;5.40;;;;;;;28.58;41.59;100663.16;112650;1213;65825;-83
2021/08/25 08:29:33;;;;;;;9.80;4.90;;;;;;;28.59;41.70;100661.27;112540;1213;61055;-88
2021/08/25 08:32:05;;;;;;;6.50;5.10;;;;;;;28.59;41.61;100659.19;112792;1213;61130;-86
2021/08/25 08:34:39;;;;;;;7.50;4.90;;;;;;;28.61;41.50;100657.64;112747;1213;63694;-88
2021/08/25 08:37:34;;;;;;;8.70;5.30;;;;;;;28.61;41.46;100656.21;112377;1223;64730;-84
2021/08/25 08:40:00;;;;;;;7.00;4.90;;;;;;;28.62;41.46;100658.29;112413;1214;61003;-84
2021/08/25 08:42:29;;;;;;;;;;;;;;;28.62;41.46;100660.74;112366;1215;61311;-84
2021/08/25 08:44:59;;;;;;;6.50;4.90;;;;;;;28.61;41.72;100656.93;112271;1216;61032;-85
2021/08/25 08:47:26;;;;;;;6.10;4.80;;;;;;;28.61;41.45;100651.13;112243;1222;66764;-86
2021/08/25 08:49:55;;;;;;;7.00;4.50;;;;;;;28.61;41.36;100646.75;112239;1215;61020;-83
2021/08/25 08:52:21;;;;;;;6.30;4.60;;;;;;;28.62;41.51;100648.09;111945;1214;61126;-83
2021/08/25 08:54:47;;;;;;;7.80;4.80;;;;;;;28.63;41.54;100645.48;111967;1215;61022;-83
2021/08/25 08:57:16;;;;;;;8.60;5.00;;;;;;;28.64;41.59;100638.31;111968;1215;61028;-83
2021/08/25 08:59:42;;;;;;;6.40;4.40;;;;;;;28.65;41.48;100639.83;112040;1216;61020;-83
2021/08/25 09:02:09;;;;;;;7.00;4.80;;;;;;;28.66;41.39;100635.19;112050;1221;61005;-83
2021/08/25 09:04:35;;;;;;;7.80;4.90;;;;;;;28.67;41.44;100626.03;112128;1219;60946;-83
2021/08/25 09:07:02;;;;;;;6.90;4.80;;;;;;;28.68;41.54;100619.73;112078;1218;61134;-83
2021/08/25 09:09:28;;;;;;;7.90;4.80;;;;;;;28.69;41.36;100608.61;111946;1216;61107;-82
2021/08/25 09:11:54;;;;;;;7.70;4.90;;;;;;;28.70;41.28;100604.50;112244;1216;61143;-84
2021/08/25 09:14:24;;;;;;;7.20;5.00;;;;;;;28.71;41.37;100603.15;112099;1219;60998;-84
2021/08/25 09:16:50;;;;;;;7.10;4.90;;;;;;;28.72;41.32;100603.63;112881;1217;65597;-84
2021/08/25 09:19:17;;;;;;;6.50;4.70;;;;;;;28.73;41.22;100596.44;112855;1210;60957;-85
2021/08/25 09:21:47;;;;;;;7.40;4.70;;;;;;;28.73;41.27;100593.31;112918;1210;61036;-84
2021/08/25 09:24:15;;;;;;;7.10;4.50;;;;;;;28.74;41.05;100590.05;112915;1217;64892;-88
2021/08/25 09:27:12;;;;;;;9.40;4.90;;;;;;;28.74;41.01;100588.60;113006;1217;65706;-87
2021/08/25 09:30:01;;;;;;;8.00;4.70;;;;;;;28.73;41.00;100592.27;113032;1217;61448;-89
2021/08/25 09:32:36;;;;;;;7.60;4.40;;;;;;;28.73;41.02;100592.63;113038;1217;61402;-86
2021/08/25 09:35:05;;;;;;;6.40;4.20;;;;;;;28.73;40.96;100591.52;112879;1210;64755;-86
2021/08/25 09:37:55;;;;;;;8.60;4.80;;;;;;;28.74;41.04;100586.23;112890;1218;65848;-87
2021/08/25 09:40:44;;;;;;;7.40;4.70;;;;;;;28.73;40.90;100579.22;112962;1210;60961;-86
2021/08/25 09:43:27;;;;;;;6.80;5.00;;;;;;;28.73;41.11;100576.71;112969;1217;60999;-84
2021/08/25 09:46:04;;;;;;;7.20;4.30;;;;;;;28.73;41.18;100573.11;112959;1218;64571;-85
2021/08/25 09:48:37;;;;;;;6.30;4.60;;;;;;;28.73;40.92;100566.94;112969;1210;66754;-84
2021/08/25 09:51:06;;;;;;;7.20;4.80;;;;;;;28.73;40.85;100566.19;112905;1210;61009;-81
2021/08/25 09:54:25;;;;;;;6.20;4.40;;;;;;;28.73;40.61;100561.33;112952;1212;61007;-85
2021/08/25 09:57:08;;;;;;;6.20;4.30;;;;;;;28.72;40.59;100554.33;112912;1219;64075;-86
2021/08/25 09:59:37;;;;;;;5.60;4.40;;;;;;;28.73;40.54;100549.21;113000;1211;66897;-84
2021/08/25 10:02:03;;;;;;;7.60;4.20;;;;;;;28.73;40.76;100548.09;112787;1210;60979;-81
2021/08/25 10:04:32;;;;;;;7.40;4.70;;;;;;;28.73;40.77;100542.48;112556;1210;61098;-85
2021/08/25 10:06:58;;;;;;;7.40;4.50;;;;;;;28.73;40.67;100536.68;113281;1210;61057;-84
2021/08/25 10:09:24;;;;;;;6.70;4.60;;;;;;;28.74;40.66;100533.12;112888;1216;60936;-84
2021/08/25 10:11:59;;;;;;;6.20;4.50;;;;;;;28.74;40.59;100529.32;112877;1212;60941;-86
2021/08/25 10:14:41;;;;;;;5.70;4.10;;;;;;;28.75;40.56;100518.55;112920;1218;61024;-86
2021/08/25 10:17:10;;;;;;;6.60;4.40;;;;;;;28.75;40.62;100508.77;112940;1210;64886;-91
2021/08/25 10:19:45;;;;;;;5.30;4.30;;;;;;;28.75;40.22;100508.23;112878;1211;74672;-87
2021/08/25 10:22:34;;;;;;;7.70;4.60;;;;;;;28.75;40.15;100509.69;112904;1219;60931;-89
2021/08/25 10:25:06;;;;;;;6.40;4.40;;;;;;;28.74;40.18;100509.21;112740;1217;61025;-82
2021/08/25 10:27:34;;;;;;;6.00;4.20;;;;;;;28.74;40.22;100507.59;112658;1210;63730;-83
2021/08/25 10:30:05;;;;;;;6.30;4.10;;;;;;;28.74;40.07;100504.88;112636;1217;66109;-83
2021/08/25 10:32:59;;;;;;;5.60;3.90;;;;;;;28.74;40.07;100509.59;112830;1217;61031;-82
2021/08/25 10:35:32;;;;;;;5.20;3.90;;;;;;;28.74;40.02;100517.40;112905;1217;60951;-83
2021/08/25 10:38:36;;;;;;;7.10;4.50;;;;;;;28.74;39.79;100520.76;112863;1211;64201;-85
2021/08/25 10:41:25;;;;;;;7.20;4.30;;;;;;;28.74;39.78;100525.19;112797;1220;67031;-85
2021/08/25 10:44:13;;;;;;;;;;;;;;;;;;;;;
2021/08/25 10:46:51;;;;;;;6.30;4.00;;;;;;;28.73;39.78;100508.53;112303;1216;61096;-83
2021/08/25 10:49:44;;;;;;;8.30;4.30;;;;;;;28.73;39.66;100515.66;112686;1213;64932;-84
2021/08/25 10:52:37;;;;;;;6.10;4.10;;;;;;;28.73;39.79;100505.21;112381;1216;64638;-84
2021/08/25 10:55:25;;;;;;;5.60;4.10;;;;;;;28.73;39.34;100503.71;112699;1212;60994;-87
2021/08/25 10:58:15;;;;;;;7.80;4.10;;;;;;;28.73;39.30;100491.59;112601;1212;60947;-84
2021/08/25 11:00:46;;;;;;;6.30;4.60;;;;;;;28.73;39.46;100478.05;112767;1213;64786;-84
2021/08/25 11:03:33;;;;;;;7.00;4.30;;;;;;;28.73;39.35;100470.04;112592;1220;66921;-89
2021/08/25 11:05:59;;;;;;;6.20;3.80;;;;;;;28.73;39.38;100463.27;112444;1213;61089;-86
2021/08/25 11:08:36;;;;;;;6.30;4.10;;;;;;;28.73;39.17;100466.55;112455;1213;61117;-82
2021/08/25 11:11:16;;;;;;;7.10;4.00;;;;;;;28.73;39.42;100469.63;112599;1212;63786;-85
2021/08/25 11:13:41;;;;;;;7.20;4.50;;;;;;;28.74;39.12;100465.92;112421;1215;65841;-83
2021/08/25 11:16:25;;;;;;;7.00;4.20;;;;;;;28.74;38.93;100467.73;112651;1220;60936;-82
2021/08/25 11:19:05;;;;;;;6.00;3.80;;;;;;;28.74;39.01;100469.94;112619;1220;60937;-86
2021/08/25 11:21:30;;;;;;;7.40;4.30;;;;;;;28.74;39.06;100471.86;112172;1217;65009;-83
2021/08/25 11:23:57;;;;;;;6.60;4.00;;;;;;;28.75;38.87;100467.66;112491;1221;61005;-84
2021/08/25 11:26:30;;;;;;;5.30;3.90;;;;;;;28.75;38.99;100461.98;112412;1215;59935;-85
2021/08/25 11:29:05;;;;;;;7.80;4.00;;;;;;;28.76;38.94;100458.34;112724;1213;60969;-86
2021/08/25 11:31:40;;;;;;;6.10;4.30;;;;;;;28.76;38.76;100458.48;112724;1220;63680;-85
2021/08/25 11:34:15;;;;;;;6.50;4.10;;;;;;;28.76;38.80;100454.52;112765;1213;65658;-88
2021/08/25 11:37:02;;;;;;;5.70;3.90;;;;;;;28.76;38.72;100448.55;112668;1216;61077;-85
2021/08/25 11:39:39;;;;;;;6.70;4.00;;;;;;;28.76;38.79;100449.08;112754;1214;60998;-85
2021/08/25 11:42:25;;;;;;;5.30;3.90;;;;;;;28.76;38.78;100444.54;112810;1220;72391;-84
2021/08/25 11:44:54;;;;;;;7.20;4.10;;;;;;;28.76;38.73;100446.54;112817;1212;66620;-84
2021/08/25 11:47:46;;;;;;;5.80;4.00;;;;;;;28.77;38.84;100450.23;112767;1212;61686;-86
2021/08/25 11:50:18;;;;;;;5.20;4.00;;;;;;;28.76;38.67;100449.93;112826;1212;61013;-89
2021/08/25 11:53:29;;;;;;;5.80;4.10;;;;;;;28.77;38.54;100444.98;112685;1213;64667;-88
2021/08/25 11:56:05;;;;;;;5.80;4.20;;;;;;;28.76;38.64;100440.32;112065;1225;75784;-84
2021/08/25 11:58:42;;;;;;;6.70;4.20;;;;;;;28.77;38.81;100441.18;112148;1225;60993;-91
2021/08/25 12:01:24;;;;;;;5.40;3.90;;;;;;;28.77;38.67;100434.25;111923;1219;61240;-83
2021/08/25 12:03:52;;;;;;;7.50;4.00;;;;;;;28.79;38.76;100433.05;111935;1219;64997;-88
2021/08/25 12:06:19;;;;;;;5.90;3.90;;;;;;;28.79;38.83;100434.25;112045;1224;60975;-84
2021/08/25 12:08:49;;;;;;;5.00;3.80;;;;;;;28.79;38.73;100432.25;112081;1224;60974;-87